createdAt,value
2019-01-20T00:00:46.991Z,99.90
2019-01-20T00:01:52.382Z,99.90
2019-01-20T00:02:57.728Z,99.90
2019-01-20T00:04:03.240Z,99.90
2019-01-20T00:05:09.884Z,99.90
2019-01-20T00:06:15.125Z,99.90
2019-01-20T00:07:20.549Z,99.90
2019-01-20T00:08:25.748Z,99.90
2019-01-20T00:09:31.104Z,99.90
2019-01-20T00:10:36.666Z,99.90
2019-01-20T00:11:42.046Z,99.90
2019-01-20T00:12:53.472Z,99.90
2019-01-20T00:14:14.024Z,99.90
2019-01-20T00:15:20.028Z,99.90
2019-01-20T00:16:25.603Z,99.90
2019-01-20T00:17:31.015Z,99.90
2019-01-20T00:18:36.306Z,99.90
2019-01-20T00:19:41.662Z,99.90
2019-01-20T00:20:46.870Z,99.90
2019-01-20T00:21:52.128Z,99.90
2019-01-20T00:22:57.479Z,99.90
2019-01-20T00:24:02.762Z,99.90
2019-01-20T00:25:12.832Z,99.90
2019-01-20T00:26:18.381Z,99.90
2019-01-20T00:27:23.840Z,99.90
2019-01-20T00:28:29.281Z,99.90
2019-01-20T00:29:34.742Z,99.90
2019-01-20T00:30:40.276Z,99.90
2019-01-20T00:31:45.508Z,99.90
2019-01-20T00:32:50.812Z,99.90
2019-01-20T00:33:57.239Z,99.90
2019-01-20T00:35:02.828Z,99.90
2019-01-20T00:36:08.148Z,99.90
2019-01-20T00:37:13.587Z,99.90
2019-01-20T00:38:19.006Z,99.90
2019-01-20T00:39:25.531Z,99.90
2019-01-20T00:40:31.075Z,99.90
2019-01-20T00:41:36.339Z,99.90
2019-01-20T00:42:41.948Z,99.90
2019-01-20T00:43:47.204Z,99.90
2019-01-20T00:45:02.388Z,99.90
2019-01-20T00:46:01.814Z,99.90
2019-01-20T00:47:07.670Z,99.90
2019-01-20T00:48:12.980Z,99.90
2019-01-20T00:49:18.375Z,99.90
2019-01-20T00:50:23.957Z,99.90
2019-01-20T00:51:29.396Z,99.90
2019-01-20T00:52:35.406Z,99.90
2019-01-20T00:53:40.974Z,99.90
2019-01-20T00:54:46.775Z,99.90
2019-01-20T00:55:52.039Z,99.90
2019-01-20T00:56:57.259Z,99.90
2019-01-20T00:58:02.970Z,99.90
2019-01-20T00:59:09.076Z,99.90
2019-01-20T01:00:20.658Z,99.90
2019-01-20T01:01:25.835Z,99.90
2019-01-20T01:02:31.237Z,99.90
2019-01-20T01:03:36.516Z,99.90
2019-01-20T01:04:41.936Z,99.90
2019-01-20T01:05:47.263Z,99.90
2019-01-20T01:06:53.655Z,99.90
2019-01-20T01:08:01.090Z,99.90
2019-01-20T01:09:08.898Z,99.90
2019-01-20T01:10:14.392Z,99.90
2019-01-20T01:11:19.842Z,99.90
2019-01-20T01:12:26.430Z,99.90
2019-01-20T01:13:31.757Z,99.90
2019-01-20T01:14:37.024Z,99.90
2019-01-20T01:15:42.193Z,99.90
2019-01-20T01:16:47.394Z,99.90
2019-01-20T01:17:52.666Z,99.90
2019-01-20T01:18:57.909Z,99.90
2019-01-20T01:20:03.574Z,99.90
2019-01-20T01:21:11.234Z,99.90
2019-01-20T01:22:16.488Z,99.90
2019-01-20T01:23:21.824Z,99.90
2019-01-20T01:24:27.132Z,99.90
2019-01-20T01:25:32.419Z,99.90
2019-01-20T01:26:37.693Z,99.90
2019-01-20T01:27:43.164Z,99.90
2019-01-20T01:28:48.394Z,99.90
2019-01-20T01:29:53.515Z,99.90
2019-01-20T01:30:58.778Z,99.90
2019-01-20T01:32:04.127Z,99.90
2019-01-20T01:33:09.640Z,99.90
2019-01-20T01:34:15.005Z,99.90
2019-01-20T01:35:20.269Z,99.90
2019-01-20T01:36:25.562Z,99.90
2019-01-20T01:37:30.971Z,99.90
2019-01-20T01:38:36.289Z,99.90
2019-01-20T01:39:41.669Z,99.90
2019-01-20T01:40:47.014Z,99.90
2019-01-20T01:41:52.398Z,99.90
2019-01-20T01:42:57.664Z,99.90
2019-01-20T01:44:02.897Z,99.90
2019-01-20T01:45:10.882Z,99.90
2019-01-20T01:46:16.125Z,99.90
2019-01-20T01:47:21.429Z,99.90
2019-01-20T01:48:26.809Z,99.90
2019-01-20T01:49:32.180Z,99.90
2019-01-20T01:50:37.355Z,99.90
2019-01-20T01:51:42.532Z,99.90
2019-01-20T01:52:47.814Z,99.90
2019-01-20T01:53:53.235Z,99.90
2019-01-20T01:54:58.392Z,99.90
2019-01-20T01:56:03.563Z,99.90
2019-01-20T01:57:08.801Z,99.90
2019-01-20T01:58:14.058Z,99.90
2019-01-20T01:59:19.278Z,99.90
2019-01-20T02:00:24.833Z,99.90
2019-01-20T02:01:30.159Z,99.90
2019-01-20T02:02:35.409Z,99.90
2019-01-20T02:03:42.280Z,99.90
2019-01-20T02:04:47.659Z,99.90
2019-01-20T02:05:52.767Z,99.90
2019-01-20T02:06:58.026Z,99.90
2019-01-20T02:08:03.346Z,99.90
2019-01-20T02:09:09.324Z,99.90
2019-01-20T02:10:17.886Z,99.90
2019-01-20T02:11:23.047Z,99.90
2019-01-20T02:12:28.603Z,99.90
2019-01-20T02:13:33.960Z,99.90
2019-01-20T02:14:39.135Z,99.90
2019-01-20T02:15:44.488Z,99.90
2019-01-20T02:16:49.858Z,99.90
2019-01-20T02:17:55.192Z,99.90
2019-01-20T02:19:00.408Z,99.90
2019-01-20T02:20:07.087Z,99.90
2019-01-20T02:21:12.329Z,99.90
2019-01-20T02:22:20.688Z,99.90
2019-01-20T02:23:27.780Z,99.90
2019-01-20T02:24:32.958Z,99.90
2019-01-20T02:25:39.260Z,99.90
2019-01-20T02:26:44.572Z,99.90
2019-01-20T02:27:51.453Z,99.90
2019-01-20T02:28:56.739Z,99.90
2019-01-20T02:30:02.004Z,99.90
2019-01-20T02:31:08.558Z,99.90
2019-01-20T02:32:13.899Z,99.90
2019-01-20T02:33:19.115Z,99.90
2019-01-20T02:34:24.454Z,99.90
2019-01-20T02:35:31.861Z,99.90
2019-01-20T02:36:37.039Z,99.90
2019-01-20T02:37:42.453Z,99.90
2019-01-20T02:38:47.534Z,99.90
2019-01-20T02:39:52.752Z,99.90
2019-01-20T02:40:58.072Z,99.90
2019-01-20T02:42:03.335Z,99.90
2019-01-20T02:43:08.735Z,99.90
2019-01-20T02:44:13.963Z,99.90
2019-01-20T02:45:19.173Z,99.90
2019-01-20T02:46:24.455Z,99.90
2019-01-20T02:47:29.700Z,99.90
2019-01-20T02:48:34.863Z,99.90
2019-01-20T02:49:41.319Z,99.90
2019-01-20T02:50:46.638Z,99.90
2019-01-20T02:51:53.382Z,99.90
2019-01-20T02:53:00.606Z,99.90
2019-01-20T02:54:05.827Z,99.90
2019-01-20T02:55:11.203Z,99.90
2019-01-20T02:56:17.171Z,99.90
2019-01-20T02:57:22.365Z,99.90
2019-01-20T02:58:27.564Z,99.90
2019-01-20T02:59:32.916Z,99.90
2019-01-20T03:00:38.202Z,99.90
2019-01-20T03:01:43.538Z,99.90
2019-01-20T03:02:49.985Z,99.90
2019-01-20T03:03:55.262Z,99.90
2019-01-20T03:05:00.513Z,99.90
2019-01-20T03:06:05.944Z,99.90
2019-01-20T03:07:11.199Z,99.90
2019-01-20T03:08:16.483Z,99.90
2019-01-20T03:09:21.709Z,99.90
2019-01-20T03:10:27.023Z,99.90
2019-01-20T03:11:32.289Z,99.90
2019-01-20T03:12:37.584Z,99.90
2019-01-20T03:13:42.800Z,99.90
2019-01-20T03:14:48.120Z,99.90
2019-01-20T03:15:53.465Z,99.90
2019-01-20T03:16:58.742Z,99.90
2019-01-20T03:18:03.928Z,99.90
2019-01-20T03:19:11.890Z,99.90
2019-01-20T03:20:19.548Z,99.90
2019-01-20T03:21:25.700Z,99.90
2019-01-20T03:22:30.960Z,99.90
2019-01-20T03:23:36.142Z,99.90
2019-01-20T03:24:41.452Z,99.90
2019-01-20T03:25:46.656Z,99.90
2019-01-20T03:26:52.151Z,99.90
2019-01-20T03:27:57.361Z,99.90
2019-01-20T03:29:02.625Z,99.90
2019-01-20T03:30:12.361Z,99.90
2019-01-20T03:31:17.605Z,99.90
2019-01-20T03:32:22.915Z,99.90
2019-01-20T03:33:28.189Z,99.90
2019-01-20T03:34:33.619Z,99.90
2019-01-20T03:35:39.934Z,99.90
2019-01-20T03:36:45.219Z,99.90
2019-01-20T03:37:50.396Z,99.90
2019-01-20T03:38:55.624Z,99.90
2019-01-20T03:40:00.792Z,99.90
2019-01-20T03:41:06.011Z,99.90
2019-01-20T03:42:12.101Z,99.90
2019-01-20T03:43:17.684Z,99.90
2019-01-20T03:44:22.856Z,99.90
2019-01-20T03:45:28.205Z,99.90
2019-01-20T03:46:33.497Z,99.90
2019-01-20T03:47:38.837Z,99.90
2019-01-20T03:48:44.107Z,99.90
2019-01-20T03:49:49.366Z,99.90
2019-01-20T03:50:54.625Z,99.90
2019-01-20T03:51:59.901Z,99.90
2019-01-20T03:53:05.222Z,99.90
2019-01-20T03:54:10.487Z,99.90
2019-01-20T03:55:16.611Z,99.90
2019-01-20T03:56:21.940Z,99.90
2019-01-20T03:57:28.387Z,99.90
2019-01-20T03:58:33.579Z,99.90
2019-01-20T03:59:38.813Z,99.90
2019-01-20T04:00:44.044Z,99.90
2019-01-20T04:01:49.345Z,99.90
2019-01-20T04:03:04.491Z,99.90
2019-01-20T04:04:09.845Z,99.90
2019-01-20T04:05:15.012Z,99.90
2019-01-20T04:06:20.227Z,99.90
2019-01-20T04:07:25.501Z,99.90
2019-01-20T04:08:30.736Z,99.90
2019-01-20T04:09:36.004Z,99.90
2019-01-20T04:10:41.320Z,99.90
2019-01-20T04:11:46.599Z,99.90
2019-01-20T04:12:51.907Z,99.90
2019-01-20T04:13:57.055Z,99.90
2019-01-20T04:15:02.267Z,99.90
2019-01-20T04:16:07.548Z,99.90
2019-01-20T04:17:12.952Z,99.90
2019-01-20T04:18:18.251Z,99.90
2019-01-20T04:19:23.430Z,99.90
2019-01-20T04:20:28.724Z,99.90
2019-01-20T04:21:34.904Z,99.90
2019-01-20T04:22:40.246Z,99.90
2019-01-20T04:23:45.486Z,99.90
2019-01-20T04:24:50.751Z,99.90
2019-01-20T04:25:56.001Z,99.90
2019-01-20T04:27:01.262Z,99.90
2019-01-20T04:28:06.544Z,99.90
2019-01-20T04:29:11.797Z,99.90
2019-01-20T04:30:19.087Z,99.90
2019-01-20T04:31:24.351Z,99.90
2019-01-20T04:32:29.542Z,99.90
2019-01-20T04:33:34.683Z,99.90
2019-01-20T04:34:39.929Z,99.90
2019-01-20T04:35:45.236Z,99.90
2019-01-20T04:36:50.492Z,99.90
2019-01-20T04:37:55.675Z,99.90
2019-01-20T04:39:00.868Z,99.90
2019-01-20T04:40:10.543Z,99.90
2019-01-20T04:41:15.855Z,99.90
2019-01-20T04:42:28.777Z,99.90
2019-01-20T04:43:27.829Z,99.90
2019-01-20T04:44:33.029Z,99.90
2019-01-20T04:45:38.337Z,99.90
2019-01-20T04:46:43.716Z,99.90
2019-01-20T04:47:49.004Z,99.90
2019-01-20T04:48:54.207Z,99.90
2019-01-20T04:49:59.455Z,99.90
2019-01-20T04:51:04.764Z,99.90
2019-01-20T04:52:10.002Z,99.90
2019-01-20T04:53:15.251Z,99.90
2019-01-20T04:54:20.541Z,99.90
2019-01-20T04:55:25.884Z,99.90
2019-01-20T04:56:31.169Z,99.90
2019-01-20T04:57:36.430Z,99.90
2019-01-20T04:58:41.805Z,99.90
2019-01-20T04:59:47.036Z,99.90
2019-01-20T05:00:52.287Z,99.90
2019-01-20T05:01:57.486Z,99.90
2019-01-20T05:03:03.054Z,99.90
2019-01-20T05:04:08.347Z,99.90
2019-01-20T05:05:13.640Z,99.90
2019-01-20T05:06:18.869Z,99.90
2019-01-20T05:07:24.123Z,99.90
2019-01-20T05:08:29.371Z,99.90
2019-01-20T05:09:34.667Z,99.90
2019-01-20T05:10:39.918Z,99.90
2019-01-20T05:11:45.237Z,99.90
2019-01-20T05:12:50.432Z,99.90
2019-01-20T05:13:55.777Z,99.90
2019-01-20T05:15:01.017Z,99.90
2019-01-20T05:16:06.276Z,99.90
2019-01-20T05:17:11.542Z,99.90
2019-01-20T05:18:16.663Z,99.90
2019-01-20T05:19:21.900Z,99.90
2019-01-20T05:20:27.080Z,99.90
2019-01-20T05:21:32.350Z,99.90
2019-01-20T05:22:37.602Z,99.90
2019-01-20T05:23:42.980Z,99.90
2019-01-20T05:24:48.247Z,99.90
2019-01-20T05:25:53.464Z,99.90
2019-01-20T05:26:58.771Z,99.90
2019-01-20T05:28:04.039Z,99.90
2019-01-20T05:29:09.147Z,99.90
2019-01-20T05:30:17.313Z,99.90
2019-01-20T05:31:22.575Z,99.90
2019-01-20T05:32:27.857Z,99.90
2019-01-20T05:33:33.032Z,99.90
2019-01-20T05:34:38.274Z,99.90
2019-01-20T05:35:43.577Z,99.90
2019-01-20T05:36:48.855Z,99.90
2019-01-20T05:37:54.080Z,99.90
2019-01-20T05:38:59.369Z,99.90
2019-01-20T05:40:05.822Z,99.90
2019-01-20T05:41:11.141Z,99.90
2019-01-20T05:42:19.437Z,99.90
2019-01-20T05:43:24.703Z,99.90
2019-01-20T05:44:30.054Z,99.90
2019-01-20T05:45:35.347Z,99.90
2019-01-20T05:46:40.652Z,99.90
2019-01-20T05:47:45.879Z,99.90
2019-01-20T05:48:51.150Z,99.90
2019-01-20T05:49:56.353Z,99.90
2019-01-20T05:51:01.612Z,99.90
2019-01-20T05:52:06.847Z,99.90
2019-01-20T05:53:12.057Z,99.90
2019-01-20T05:54:17.354Z,99.90
2019-01-20T05:55:22.640Z,99.90
2019-01-20T05:56:27.874Z,99.90
2019-01-20T05:57:33.198Z,99.90
2019-01-20T05:58:38.392Z,99.90
2019-01-20T05:59:43.661Z,99.90
2019-01-20T06:00:49.005Z,99.90
2019-01-20T06:01:54.254Z,99.90
2019-01-20T06:02:59.444Z,99.90
2019-01-20T06:04:04.543Z,99.90
2019-01-20T06:05:09.863Z,99.90
2019-01-20T06:06:15.051Z,99.90
2019-01-20T06:07:20.380Z,99.90
2019-01-20T06:08:25.681Z,99.90
2019-01-20T06:09:30.946Z,99.90
2019-01-20T06:10:36.178Z,99.90
2019-01-20T06:11:41.468Z,99.90
2019-01-20T06:12:53.640Z,99.90
2019-01-20T06:13:53.646Z,99.90
2019-01-20T06:14:58.905Z,99.90
2019-01-20T06:16:04.224Z,99.90
2019-01-20T06:17:09.405Z,99.90
2019-01-20T06:18:14.800Z,99.90
2019-01-20T06:19:20.035Z,99.90
2019-01-20T06:20:25.294Z,99.90
2019-01-20T06:21:30.560Z,99.90
2019-01-20T06:22:35.884Z,99.90
2019-01-20T06:23:41.137Z,99.90
2019-01-20T06:24:46.450Z,99.90
2019-01-20T06:25:51.636Z,99.90
2019-01-20T06:26:56.837Z,99.90
2019-01-20T06:28:02.067Z,99.90
2019-01-20T06:29:07.344Z,99.90
2019-01-20T06:30:18.709Z,99.90
2019-01-20T06:31:23.960Z,99.90
2019-01-20T06:32:29.322Z,99.90
2019-01-20T06:33:34.596Z,99.90
2019-01-20T06:34:39.893Z,99.90
2019-01-20T06:35:45.274Z,99.90
2019-01-20T06:36:50.672Z,99.90
2019-01-20T06:37:55.928Z,99.90
2019-01-20T06:39:01.288Z,99.90
2019-01-20T06:40:08.423Z,99.90
2019-01-20T06:41:13.717Z,99.90
2019-01-20T06:42:18.967Z,99.90
2019-01-20T06:43:24.164Z,99.90
2019-01-20T06:44:29.409Z,99.90
2019-01-20T06:45:34.740Z,99.90
2019-01-20T06:46:39.899Z,99.90
2019-01-20T06:47:45.203Z,99.90
2019-01-20T06:48:50.509Z,99.90
2019-01-20T06:49:55.657Z,99.90
2019-01-20T06:51:00.872Z,99.90
2019-01-20T06:52:06.086Z,99.90
2019-01-20T06:53:11.403Z,99.90
2019-01-20T06:54:16.701Z,99.90
2019-01-20T06:55:21.958Z,99.90
2019-01-20T06:56:27.359Z,99.90
2019-01-20T06:57:33.566Z,99.90
2019-01-20T06:58:38.854Z,99.90
2019-01-20T06:59:44.148Z,99.90
2019-01-20T07:00:49.404Z,99.90
2019-01-20T07:01:54.638Z,99.90
2019-01-20T07:02:59.957Z,99.90
2019-01-20T07:04:05.308Z,99.90
2019-01-20T07:05:10.803Z,99.90
2019-01-20T07:06:16.064Z,99.90
2019-01-20T07:07:21.347Z,99.90
2019-01-20T07:08:26.537Z,99.90
2019-01-20T07:09:31.787Z,99.90
2019-01-20T07:10:37.000Z,99.90
2019-01-20T07:11:42.199Z,99.90
2019-01-20T07:12:47.450Z,99.90
2019-01-20T07:13:52.757Z,99.90
2019-01-20T07:14:57.824Z,99.90
2019-01-20T07:16:03.075Z,99.90
2019-01-20T07:17:08.357Z,99.90
2019-01-20T07:18:13.625Z,99.90
2019-01-20T07:19:18.749Z,99.90
2019-01-20T07:20:23.905Z,99.90
2019-01-20T07:21:29.177Z,99.90
2019-01-20T07:22:34.530Z,99.90
2019-01-20T07:23:39.775Z,99.90
2019-01-20T07:24:45.674Z,99.90
2019-01-20T07:25:50.986Z,99.90
2019-01-20T07:26:56.293Z,99.90
2019-01-20T07:28:01.508Z,99.90
2019-01-20T07:29:06.673Z,99.90
2019-01-20T07:30:14.802Z,99.90
2019-01-20T07:31:19.963Z,99.90
2019-01-20T07:32:25.228Z,99.90
2019-01-20T07:33:30.458Z,99.90
2019-01-20T07:34:35.693Z,99.90
2019-01-20T07:35:40.921Z,99.90
2019-01-20T07:36:46.151Z,99.90
2019-01-20T07:37:51.635Z,99.90
2019-01-20T07:38:56.907Z,99.90
2019-01-20T07:40:02.167Z,99.90
2019-01-20T07:41:07.326Z,99.90
2019-01-20T07:42:12.491Z,99.90
2019-01-20T07:43:17.671Z,99.90
2019-01-20T07:44:22.837Z,99.90
2019-01-20T07:45:27.928Z,99.90
2019-01-20T07:46:33.124Z,99.90
2019-01-20T07:47:38.330Z,99.90
2019-01-20T07:48:43.601Z,99.90
2019-01-20T07:49:48.894Z,99.90
2019-01-20T07:50:54.227Z,99.90
2019-01-20T07:51:59.369Z,99.90
2019-01-20T07:53:04.663Z,99.90
2019-01-20T07:54:09.839Z,99.90
2019-01-20T07:55:15.024Z,99.90
2019-01-20T07:56:20.286Z,99.90
2019-01-20T07:57:25.566Z,99.90
2019-01-20T07:58:30.772Z,99.90
2019-01-20T07:59:36.039Z,99.90
2019-01-20T08:00:41.331Z,99.90
2019-01-20T08:01:46.596Z,99.90
2019-01-20T08:02:51.859Z,99.90
2019-01-20T08:03:57.167Z,99.90
2019-01-20T08:05:02.443Z,99.90
2019-01-20T08:06:08.768Z,99.90
2019-01-20T08:07:13.942Z,99.90
2019-01-20T08:08:19.222Z,99.90
2019-01-20T08:09:24.312Z,99.90
2019-01-20T08:10:30.528Z,99.90
2019-01-20T08:11:35.746Z,99.90
2019-01-20T08:12:40.962Z,99.90
2019-01-20T08:13:46.310Z,99.90
2019-01-20T08:14:51.564Z,99.90
2019-01-20T08:15:56.836Z,99.90
2019-01-20T08:17:02.018Z,99.90
2019-01-20T08:18:07.270Z,99.90
2019-01-20T08:19:12.624Z,99.90
2019-01-20T08:20:19.564Z,99.90
2019-01-20T08:21:24.766Z,99.90
2019-01-20T08:22:30.019Z,99.90
2019-01-20T08:23:35.199Z,99.90
2019-01-20T08:24:40.489Z,99.90
2019-01-20T08:25:45.762Z,99.90
2019-01-20T08:26:51.048Z,99.90
2019-01-20T08:27:56.327Z,99.90
2019-01-20T08:29:01.614Z,99.90
2019-01-20T08:30:09.041Z,99.90
2019-01-20T08:31:14.321Z,99.90
2019-01-20T08:32:19.555Z,99.90
2019-01-20T08:33:24.769Z,99.90
2019-01-20T08:34:30.062Z,99.90
2019-01-20T08:35:35.347Z,99.90
2019-01-20T08:36:40.608Z,99.90
2019-01-20T08:37:45.879Z,99.90
2019-01-20T08:38:51.198Z,99.90
2019-01-20T08:39:57.588Z,99.90
2019-01-20T08:41:02.853Z,99.90
2019-01-20T08:42:09.069Z,99.90
2019-01-20T08:43:14.354Z,99.90
2019-01-20T08:44:19.980Z,99.90
2019-01-20T08:46:08.586Z,99.90
2019-01-20T08:47:23.920Z,99.90
2019-01-20T08:48:29.088Z,99.90
2019-01-20T08:49:34.424Z,99.90
2019-01-20T08:50:40.246Z,99.90
2019-01-20T08:51:45.573Z,99.90
2019-01-20T08:52:50.731Z,99.90
2019-01-20T08:53:56.340Z,99.90
2019-01-20T08:55:02.660Z,99.90
2019-01-20T08:56:08.190Z,99.90
2019-01-20T08:57:13.660Z,99.90
2019-01-20T08:58:18.942Z,99.90
2019-01-20T08:59:24.110Z,99.90
2019-01-20T09:00:29.395Z,99.90
2019-01-20T09:01:34.624Z,99.90
2019-01-20T09:02:40.414Z,99.90
2019-01-20T09:03:45.665Z,99.90
2019-01-20T09:04:50.952Z,99.90
2019-01-20T09:05:56.191Z,99.90
2019-01-20T09:07:01.528Z,99.90
2019-01-20T09:08:06.778Z,99.90
2019-01-20T09:09:12.277Z,99.90
2019-01-20T09:10:20.943Z,99.90
2019-01-20T09:11:26.280Z,99.90
2019-01-20T09:12:32.027Z,99.90
2019-01-20T09:13:39.863Z,99.90
2019-01-20T09:14:45.448Z,99.90
2019-01-20T09:15:51.031Z,99.90
2019-01-20T09:16:59.717Z,99.90
2019-01-20T09:18:05.021Z,99.90
2019-01-20T09:19:11.598Z,99.90
2019-01-20T09:20:16.924Z,99.90
2019-01-20T09:21:22.300Z,99.90
2019-01-20T09:22:27.858Z,99.90
2019-01-20T09:23:33.224Z,99.90
2019-01-20T09:24:40.024Z,99.90
2019-01-20T09:25:45.373Z,99.90
2019-01-20T09:26:50.781Z,99.90
2019-01-20T09:27:56.323Z,99.90
2019-01-20T09:29:01.626Z,99.90
2019-01-20T09:30:10.772Z,99.90
2019-01-20T09:31:17.888Z,99.90
2019-01-20T09:32:23.389Z,99.90
2019-01-20T09:33:31.998Z,99.90
2019-01-20T09:34:37.564Z,99.90
2019-01-20T09:35:43.218Z,99.90
2019-01-20T09:36:48.660Z,99.90
2019-01-20T09:37:53.975Z,99.90
2019-01-20T09:38:59.354Z,99.90
2019-01-20T09:40:05.472Z,99.90
2019-01-20T09:41:10.804Z,99.90
2019-01-20T09:42:16.231Z,99.90
2019-01-20T09:43:21.520Z,99.90
2019-01-20T09:44:26.846Z,99.90
2019-01-20T09:45:33.983Z,99.90
2019-01-20T09:46:39.250Z,99.90
2019-01-20T09:47:44.661Z,99.90
2019-01-20T09:48:49.873Z,99.90
2019-01-20T09:49:55.329Z,99.90
2019-01-20T09:51:00.702Z,99.90
2019-01-20T09:52:06.124Z,99.90
2019-01-20T09:53:11.429Z,99.90
2019-01-20T09:54:16.817Z,99.90
2019-01-20T09:55:22.208Z,99.90
2019-01-20T09:56:27.650Z,99.90
2019-01-20T09:57:32.924Z,99.90
2019-01-20T09:58:38.546Z,99.90
2019-01-20T09:59:45.103Z,99.90
2019-01-20T10:00:50.417Z,99.90
2019-01-20T10:01:55.850Z,99.90
2019-01-20T10:03:01.152Z,99.90
2019-01-20T10:04:06.637Z,99.90
2019-01-20T10:05:11.970Z,99.90
2019-01-20T10:06:20.289Z,99.90
2019-01-20T10:07:25.922Z,99.90
2019-01-20T10:08:31.258Z,99.90
2019-01-20T10:09:36.851Z,99.30
2019-01-20T10:10:42.107Z,97.60
2019-01-20T10:11:47.695Z,97.40
2019-01-20T10:12:53.010Z,98.10
2019-01-20T10:13:58.466Z,96.30
2019-01-20T10:15:04.633Z,96.40
2019-01-20T10:16:09.933Z,95.90
2019-01-20T10:17:15.244Z,95.60
2019-01-20T10:18:20.583Z,96.60
2019-01-20T10:19:25.915Z,95.40
2019-01-20T10:20:32.733Z,95.20
2019-01-20T10:21:38.339Z,95.00
2019-01-20T10:22:44.157Z,94.40
2019-01-20T10:23:49.491Z,94.60
2019-01-20T10:24:54.856Z,93.60
2019-01-20T10:26:00.038Z,93.20
2019-01-20T10:27:05.517Z,91.70
2019-01-20T10:28:13.584Z,90.60
2019-01-20T10:29:18.874Z,90.80
2019-01-20T10:30:26.831Z,91.30
2019-01-20T10:31:32.903Z,91.10
2019-01-20T10:32:38.195Z,91.10
2019-01-20T10:33:43.627Z,91.40
2019-01-20T10:34:50.227Z,91.60
2019-01-20T10:36:00.653Z,91.20
2019-01-20T10:37:06.627Z,90.60
2019-01-20T10:38:12.180Z,90.50
2019-01-20T10:39:17.472Z,90.70
2019-01-20T10:40:22.886Z,90.20
2019-01-20T10:41:28.224Z,90.50
2019-01-20T10:42:33.571Z,90.70
2019-01-20T10:43:38.760Z,90.20
2019-01-20T10:44:44.277Z,88.40
2019-01-20T10:45:49.680Z,89.70
2019-01-20T10:46:55.051Z,88.60
2019-01-20T10:48:00.280Z,88.30
2019-01-20T10:49:05.787Z,89.50
2019-01-20T10:50:12.169Z,89.50
2019-01-20T10:51:17.383Z,90.90
2019-01-20T10:52:22.957Z,88.70
2019-01-20T10:53:28.350Z,88.40
2019-01-20T10:54:36.267Z,89.10
2019-01-20T10:55:41.758Z,88.50
2019-01-20T10:56:47.051Z,89.50
2019-01-20T10:57:52.689Z,84.90
2019-01-20T10:58:58.001Z,86.40
2019-01-20T11:00:04.729Z,82.40
2019-01-20T11:01:10.008Z,80.70
2019-01-20T11:02:15.462Z,81.40
2019-01-20T11:03:20.832Z,82.30
2019-01-20T11:04:26.810Z,81.50
2019-01-20T11:05:32.840Z,83.60
2019-01-20T11:06:38.103Z,79.70
2019-01-20T11:07:43.474Z,79.50
2019-01-20T11:08:48.705Z,79.00
2019-01-20T11:09:53.917Z,79.90
2019-01-20T11:10:59.131Z,78.50
2019-01-20T11:12:04.670Z,76.50
2019-01-20T11:13:10.679Z,76.30
2019-01-20T11:14:16.024Z,75.30
2019-01-20T11:15:22.569Z,74.40
2019-01-20T11:16:27.796Z,75.40
2019-01-20T11:17:33.391Z,75.30
2019-01-20T11:18:38.725Z,75.80
2019-01-20T11:19:44.130Z,75.70
2019-01-20T11:20:49.343Z,75.40
2019-01-20T11:21:54.819Z,73.40
2019-01-20T11:23:00.068Z,73.80
2019-01-20T11:24:05.425Z,72.40
2019-01-20T11:25:13.535Z,72.90
2019-01-20T11:26:19.772Z,72.30
2019-01-20T11:27:25.233Z,73.40
2019-01-20T11:28:30.560Z,75.20
2019-01-20T11:29:35.954Z,76.10
2019-01-20T11:30:41.234Z,75.70
2019-01-20T11:31:46.557Z,75.90
2019-01-20T11:32:51.849Z,76.90
2019-01-20T11:33:57.192Z,76.00
2019-01-20T11:35:02.783Z,75.80
2019-01-20T11:36:08.064Z,74.70
2019-01-20T11:37:13.515Z,75.00
2019-01-20T11:38:18.913Z,74.30
2019-01-20T11:39:24.265Z,74.00
2019-01-20T11:40:29.555Z,75.50
2019-01-20T11:41:34.770Z,76.00
2019-01-20T11:42:40.101Z,76.10
2019-01-20T11:43:45.448Z,75.30
2019-01-20T11:44:50.699Z,75.10
2019-01-20T11:45:56.053Z,75.30
2019-01-20T11:47:01.456Z,75.00
2019-01-20T11:48:07.697Z,74.30
2019-01-20T11:49:13.032Z,72.70
2019-01-20T11:50:19.097Z,73.60
2019-01-20T11:51:24.347Z,73.90
2019-01-20T11:52:29.987Z,74.20
2019-01-20T11:53:35.313Z,74.60
2019-01-20T11:54:40.656Z,74.00
2019-01-20T11:55:45.988Z,73.50
2019-01-20T11:56:51.307Z,75.30
2019-01-20T11:57:56.690Z,77.10
2019-01-20T11:59:02.308Z,73.80
2019-01-20T12:00:11.127Z,72.60
2019-01-20T12:01:16.498Z,71.80
2019-01-20T12:02:22.484Z,74.60
2019-01-20T12:03:28.111Z,72.60
2019-01-20T12:04:33.419Z,74.10
2019-01-20T12:05:41.143Z,69.80
2019-01-20T12:06:46.516Z,69.00
2019-01-20T12:07:51.899Z,69.30
2019-01-20T12:08:57.659Z,70.10
2019-01-20T12:10:03.054Z,69.10
2019-01-20T12:11:08.524Z,68.50
2019-01-20T12:12:13.708Z,69.80
2019-01-20T12:13:27.053Z,70.10
2019-01-20T12:14:32.716Z,68.90
2019-01-20T12:15:38.170Z,68.00
2019-01-20T12:16:43.583Z,67.70
2019-01-20T12:17:49.008Z,68.60
2019-01-20T12:18:54.245Z,69.20
2019-01-20T12:19:59.633Z,68.00
2019-01-20T12:21:04.913Z,66.50
2019-01-20T12:22:10.175Z,65.80
2019-01-20T12:23:15.479Z,66.10
2019-01-20T12:24:20.742Z,66.20
2019-01-20T12:25:26.114Z,65.60
2019-01-20T12:26:31.380Z,66.50
2019-01-20T12:27:36.730Z,67.00
2019-01-20T12:28:42.047Z,67.40
2019-01-20T12:29:51.849Z,68.00
2019-01-20T12:30:55.316Z,69.30
2019-01-20T12:32:00.646Z,70.40
2019-01-20T12:33:06.262Z,70.30
2019-01-20T12:34:11.588Z,71.20
2019-01-20T12:35:16.844Z,70.70
2019-01-20T12:36:22.257Z,69.30
2019-01-20T12:37:30.446Z,99.90
2019-01-20T12:38:35.754Z,99.90
2019-01-20T12:39:41.018Z,97.40
2019-01-20T12:40:49.334Z,63.40
2019-01-20T12:41:55.604Z,62.60
2019-01-20T12:43:00.732Z,62.20
2019-01-20T12:44:06.010Z,60.90
2019-01-20T12:45:11.360Z,58.00
2019-01-20T12:46:16.621Z,64.00
2019-01-20T12:47:21.846Z,62.90
2019-01-20T12:48:27.154Z,58.90
2019-01-20T12:49:32.444Z,57.90
2019-01-20T12:50:37.692Z,57.40
2019-01-20T12:51:42.959Z,58.90
2019-01-20T12:52:48.256Z,59.50
2019-01-20T12:53:53.538Z,60.10
2019-01-20T12:54:58.753Z,59.40
2019-01-20T12:56:04.021Z,60.10
2019-01-20T12:57:09.230Z,60.20
2019-01-20T12:58:14.669Z,60.30
2019-01-20T12:59:19.919Z,60.90
2019-01-20T13:00:25.198Z,61.60
2019-01-20T13:01:30.481Z,61.30
2019-01-20T13:02:35.740Z,61.50
2019-01-20T13:03:41.057Z,62.10
2019-01-20T13:04:46.359Z,60.00
2019-01-20T13:05:51.631Z,60.50
2019-01-20T13:06:56.875Z,59.30
2019-01-20T13:08:02.754Z,58.70
2019-01-20T13:09:09.627Z,58.70
2019-01-20T13:10:16.445Z,59.10
2019-01-20T13:11:21.705Z,58.70
2019-01-20T13:12:26.948Z,59.60
2019-01-20T13:13:32.162Z,59.20
2019-01-20T13:14:39.160Z,59.40
2019-01-20T13:15:45.529Z,59.90
2019-01-20T13:16:50.780Z,59.50
2019-01-20T13:17:56.114Z,59.80
2019-01-20T13:19:01.370Z,59.60
2019-01-20T13:20:09.314Z,59.00
2019-01-20T13:21:14.522Z,59.80
2019-01-20T13:22:19.693Z,58.80
2019-01-20T13:23:25.023Z,58.70
2019-01-20T13:24:30.296Z,58.50
2019-01-20T13:25:35.608Z,59.60
2019-01-20T13:26:40.805Z,59.30
2019-01-20T13:27:46.113Z,58.70
2019-01-20T13:28:51.378Z,59.50
2019-01-20T13:29:56.740Z,60.30
2019-01-20T13:31:02.063Z,59.80
2019-01-20T13:32:08.146Z,59.70
2019-01-20T13:33:13.314Z,61.20
2019-01-20T13:34:18.516Z,61.40
2019-01-20T13:35:24.413Z,62.30
2019-01-20T13:36:29.603Z,60.70
2019-01-20T13:37:34.998Z,59.90
2019-01-20T13:38:40.257Z,59.60
2019-01-20T13:39:45.453Z,59.00
2019-01-20T13:41:09.177Z,58.00
2019-01-20T13:42:14.456Z,57.60
2019-01-20T13:43:19.810Z,58.40
2019-01-20T13:44:25.035Z,58.40
2019-01-20T13:45:30.310Z,58.30
2019-01-20T13:46:35.494Z,58.40
2019-01-20T13:47:40.760Z,58.60
2019-01-20T13:48:45.930Z,59.00
2019-01-20T13:49:51.260Z,58.80
2019-01-20T13:50:56.512Z,60.30
2019-01-20T13:52:03.514Z,59.30
2019-01-20T13:53:08.733Z,59.00
2019-01-20T13:54:14.009Z,59.10
2019-01-20T13:55:19.629Z,59.20
2019-01-20T13:56:24.887Z,59.50
2019-01-20T13:57:30.222Z,59.50
2019-01-20T13:58:35.438Z,59.10
2019-01-20T13:59:40.721Z,59.50
2019-01-20T14:00:47.124Z,60.10
2019-01-20T14:01:52.473Z,60.30
2019-01-20T14:02:57.755Z,60.30
2019-01-20T14:04:03.109Z,60.50
2019-01-20T14:05:10.263Z,61.60
2019-01-20T14:06:15.518Z,60.90